Time;durP1;ratioP1;P1;durP2;ratioP2;P2;SDS_P1;SDS_P2;PMS_P1;PMS_P2;Temp;Humidity;BMP_temperature;BMP_pressure;BME280_temperature;BME280_humidity;BME280_pressure;Samples;Min_cycle;Max_cycle;Signal;HPM_P1;HPM_P2
2023/08/02 00:00:50;;;;;;;0.30;0.30;;;;;;;17.76;96.47;98707.88;5019480;28;20505;-79
2023/08/02 00:03:17;;;;;;;0.30;0.30;;;;;;;17.71;96.55;98703.31;5032020;28;20053;-80
2023/08/02 00:05:52;;;;;;;0.30;0.30;;;;;;;17.72;96.63;98707.69;5032051;28;20129;-80
2023/08/02 00:08:19;;;;;;;;;;;;;;;17.68;96.28;98701.19;5017881;28;20100;-79
2023/08/02 00:10:45;;;;;;;0.30;0.30;;;;;;;17.65;96.18;98701.81;5012483;28;19925;-80
2023/08/02 00:13:14;;;;;;;0.30;0.30;;;;;;;17.59;96.41;98700.25;5010617;28;20057;-80
2023/08/02 00:15:41;;;;;;;0.30;0.30;;;;;;;17.63;96.50;98706.75;5012367;28;20131;-81
2023/08/02 00:18:08;;;;;;;0.30;0.30;;;;;;;17.58;97.02;98706.81;5012322;28;20077;-80
2023/08/02 00:20:37;;;;;;;0.30;0.30;;;;;;;17.57;97.54;98704.38;5012363;28;20052;-79
2023/08/02 00:23:06;;;;;;;0.30;0.30;;;;;;;17.58;97.47;98709.56;5012314;28;20132;-79
2023/08/02 00:25:33;;;;;;;0.30;0.30;;;;;;;17.57;97.99;98704.38;5011877;28;20049;-79
2023/08/02 00:28:00;;;;;;;0.30;0.30;;;;;;;17.51;98.39;98700.94;5012183;28;20038;-79
2023/08/02 00:30:30;;;;;;;0.30;0.30;;;;;;;17.51;99.09;98698.19;5011204;28;20119;-81
2023/08/02 00:32:58;;;;;;;0.40;0.40;;;;;;;17.49;99.61;98703.16;5012075;28;20409;-79
2023/08/02 00:35:26;;;;;;;0.30;0.30;;;;;;;17.44;99.71;98701.31;5011735;28;20080;-80
2023/08/02 00:37:53;;;;;;;0.30;0.30;;;;;;;17.45;100.00;98708.41;5010576;28;20046;-79
2023/08/02 00:40:24;;;;;;;0.30;0.30;;;;;;;17.49;100.00;98703.16;5010421;28;20056;-80
2023/08/02 00:42:52;;;;;;;0.30;0.30;;;;;;;17.46;100.00;98695.56;5010628;28;20081;-80
2023/08/02 00:45:19;;;;;;;0.30;0.30;;;;;;;17.35;100.00;98697.66;5010414;28;20053;-80
2023/08/02 00:47:47;;;;;;;0.40;0.40;;;;;;;17.30;100.00;98700.44;5010457;28;20056;-79
2023/08/02 00:50:16;;;;;;;0.35;0.35;;;;;;;17.21;100.00;98702.22;5010267;28;20054;-81
2023/08/02 00:52:46;;;;;;;0.30;0.30;;;;;;;17.13;100.00;98689.25;5010739;28;20052;-81
2023/08/02 00:55:13;;;;;;;0.30;0.30;;;;;;;17.19;100.00;98698.97;5009885;28;20045;-80
2023/08/02 00:57:40;;;;;;;0.30;0.30;;;;;;;17.18;100.00;98703.63;5010394;28;20558;-79
2023/08/02 01:00:08;;;;;;;0.30;0.30;;;;;;;17.15;100.00;98703.41;5011036;28;20057;-79
2023/08/02 01:02:35;;;;;;;0.30;0.30;;;;;;;17.05;100.00;98705.16;5011263;28;20041;-80
2023/08/02 01:05:03;;;;;;;0.30;0.30;;;;;;;17.06;100.00;98708.69;5011477;28;20050;-80
2023/08/02 01:07:52;;;;;;;0.30;0.30;;;;;;;17.14;100.00;98704.50;5011180;28;20133;-80
2023/08/02 01:10:31;;;;;;;0.30;0.30;;;;;;;17.12;100.00;98707.53;4993881;28;20042;-80
2023/08/02 01:13:05;;;;;;;0.30;0.30;;;;;;;17.16;100.00;98708.53;4993977;28;20109;-81
2023/08/02 01:15:34;;;;;;;0.30;0.30;;;;;;;17.17;100.00;98712.91;5010899;28;20054;-80
2023/08/02 01:18:02;;;;;;;0.30;0.30;;;;;;;17.12;100.00;98702.09;5010102;28;20046;-80
2023/08/02 01:20:29;;;;;;;0.30;0.30;;;;;;;17.03;100.00;98698.38;5009886;28;20049;-79
2023/08/02 01:22:57;;;;;;;0.30;0.30;;;;;;;17.00;100.00;98712.59;5011276;28;20053;-78
2023/08/02 01:25:32;;;;;;;0.30;0.30;;;;;;;17.00;100.00;98709.88;5010906;28;20509;-79
2023/08/02 01:28:08;;;;;;;0.30;0.30;;;;;;;17.02;100.00;98707.69;5009820;28;20640;-80
2023/08/02 01:30:38;;;;;;;0.30;0.30;;;;;;;17.01;100.00;98715.03;4993198;28;20052;-79
2023/08/02 01:33:05;;;;;;;0.30;0.30;;;;;;;16.97;100.00;98711.28;5009968;28;20046;-79
2023/08/02 01:35:33;;;;;;;0.30;0.30;;;;;;;16.98;100.00;98710.16;5010699;28;20397;-79
2023/08/02 01:38:02;;;;;;;0.30;0.30;;;;;;;16.95;100.00;98712.69;5009815;28;20513;-80
2023/08/02 01:40:30;;;;;;;0.30;0.30;;;;;;;16.89;100.00;98715.47;4993509;28;20042;-80
2023/08/02 01:42:57;;;;;;;0.30;0.30;;;;;;;16.79;100.00;98712.06;5010771;28;20049;-81
2023/08/02 01:45:24;;;;;;;0.30;0.30;;;;;;;16.82;100.00;98709.56;5009536;28;20081;-80
2023/08/02 01:47:51;;;;;;;0.30;0.30;;;;;;;16.82;100.00;98715.00;5010025;28;20054;-80
2023/08/02 01:50:19;;;;;;;0.30;0.30;;;;;;;16.88;100.00;98716.56;5009789;28;20507;-81
2023/08/02 01:52:48;;;;;;;0.30;0.30;;;;;;;16.83;100.00;98702.19;5010903;28;20046;-81
2023/08/02 01:55:19;;;;;;;0.30;0.30;;;;;;;16.92;100.00;98716.00;5010340;28;20049;-80
2023/08/02 01:57:47;;;;;;;0.30;0.30;;;;;;;16.98;100.00;98712.88;5010633;28;20054;-80
2023/08/02 02:00:14;;;;;;;0.30;0.30;;;;;;;16.98;100.00;98717.53;5009659;28;20135;-80
2023/08/02 02:02:43;;;;;;;0.30;0.30;;;;;;;16.95;100.00;98713.47;5010677;28;20054;-81
2023/08/02 02:05:10;;;;;;;0.30;0.30;;;;;;;16.94;100.00;98711.88;5009532;28;20060;-80
2023/08/02 02:07:37;;;;;;;0.38;0.38;;;;;;;16.93;100.00;98718.41;5009204;28;20685;-81
2023/08/02 02:10:04;;;;;;;0.30;0.30;;;;;;;16.89;100.00;98710.03;5009701;28;20544;-79
2023/08/02 02:12:32;;;;;;;0.30;0.30;;;;;;;16.98;100.00;98717.53;5009975;28;20517;-81
2023/08/02 02:14:59;;;;;;;0.30;0.30;;;;;;;17.03;100.00;98701.91;5014731;28;20042;-81
2023/08/02 02:17:28;;;;;;;0.30;0.30;;;;;;;17.05;100.00;98710.63;5014457;28;20064;-81
2023/08/02 02:19:55;;;;;;;0.30;0.30;;;;;;;17.04;100.00;98705.44;5014632;28;20144;-80
2023/08/02 02:22:23;;;;;;;0.30;0.30;;;;;;;17.04;100.00;98708.16;5014392;28;20509;-79
2023/08/02 02:24:50;;;;;;;0.30;0.30;;;;;;;17.11;100.00;98717.59;5013221;28;20037;-79
2023/08/02 02:27:21;;;;;;;0.30;0.30;;;;;;;17.16;100.00;98711.28;5014275;28;20062;-78
2023/08/02 02:29:48;;;;;;;0.30;0.30;;;;;;;17.16;100.00;98711.28;5013125;28;20052;-80
2023/08/02 02:32:17;;;;;;;0.30;0.30;;;;;;;17.19;100.00;98709.88;5012986;28;20089;-79
2023/08/02 02:34:45;;;;;;;0.30;0.30;;;;;;;17.22;100.00;98698.41;5014586;28;20610;-80
2023/08/02 02:37:12;;;;;;;0.30;0.30;;;;;;;17.27;100.00;98704.59;5014518;28;20456;-80
2023/08/02 02:39:39;;;;;;;0.30;0.30;;;;;;;17.30;100.00;98708.63;5014729;28;20493;-79
2023/08/02 02:42:06;;;;;;;0.30;0.30;;;;;;;17.37;100.00;98714.53;5014456;28;20046;-80
2023/08/02 02:44:45;;;;;;;0.32;0.32;;;;;;;17.46;100.00;98704.53;5013827;28;20567;-79
2023/08/02 02:47:14;;;;;;;0.30;0.30;;;;;;;17.51;100.00;98700.94;5014069;28;20050;-80
2023/08/02 02:49:41;;;;;;;0.30;0.30;;;;;;;17.59;100.00;98702.19;5012795;28;20042;-78
2023/08/02 02:52:09;;;;;;;0.30;0.30;;;;;;;17.63;100.00;98705.94;5013999;28;20045;-79
2023/08/02 02:54:37;;;;;;;0.30;0.30;;;;;;;17.65;100.00;98709.19;5013584;28;20046;-81
2023/08/02 02:57:05;;;;;;;0.30;0.30;;;;;;;17.60;100.00;98704.63;5013835;28;20053;-80
2023/08/02 02:59:35;;;;;;;0.30;0.30;;;;;;;17.68;100.00;98714.03;5012435;28;20124;-80
2023/08/02 03:02:02;;;;;;;0.30;0.30;;;;;;;17.66;100.00;98705.34;5013630;28;20064;-80
2023/08/02 03:04:29;;;;;;;0.30;0.30;;;;;;;17.69;100.00;98702.81;5013599;28;20046;-80
2023/08/02 03:06:56;;;;;;;0.30;0.30;;;;;;;17.71;100.00;98708.78;5013677;28;20054;-80
2023/08/02 03:09:23;;;;;;;0.30;0.30;;;;;;;17.80;100.00;98703.50;5012348;28;20077;-80
2023/08/02 03:11:50;;;;;;;0.30;0.30;;;;;;;17.82;100.00;98703.19;5013374;28;20536;-80
2023/08/02 03:14:22;;;;;;;0.30;0.30;;;;;;;17.83;100.00;98713.81;5012047;28;20463;-81
2023/08/02 03:16:49;;;;;;;0.30;0.30;;;;;;;17.93;100.00;98712.84;5013688;28;20052;-80
2023/08/02 03:19:16;;;;;;;0.30;0.30;;;;;;;18.00;100.00;98715.97;5014001;28;20084;-81
2023/08/02 03:21:46;;;;;;;0.40;0.40;;;;;;;18.07;100.00;98713.66;5013397;28;20046;-80
2023/08/02 03:24:13;;;;;;;0.30;0.30;;;;;;;18.10;100.00;98707.56;5012879;28;20057;-80
2023/08/02 03:26:43;;;;;;;0.40;0.40;;;;;;;18.29;100.00;98714.91;5011849;28;20531;-82
2023/08/02 03:29:10;;;;;;;0.30;0.30;;;;;;;18.37;100.00;98716.94;5013311;28;20042;-81
2023/08/02 03:31:37;;;;;;;0.30;0.30;;;;;;;18.50;100.00;98721.56;5013004;28;20050;-81
2023/08/02 03:34:04;;;;;;;0.30;0.30;;;;;;;18.65;100.00;98717.72;5013169;28;20046;-81
2023/08/02 03:36:31;;;;;;;0.30;0.30;;;;;;;18.75;100.00;98714.81;5012820;28;20107;-81
2023/08/02 03:38:58;;;;;;;0.30;0.30;;;;;;;18.68;100.00;98721.78;5013094;28;20520;-81
2023/08/02 03:41:26;;;;;;;0.30;0.30;;;;;;;18.49;100.00;98719.16;5012584;28;20144;-80
2023/08/02 03:43:53;;;;;;;0.30;0.30;;;;;;;18.40;100.00;98722.59;5013055;28;20513;-80
2023/08/02 03:46:20;;;;;;;0.30;0.30;;;;;;;18.31;100.00;98716.22;5012677;28;20054;-80
2023/08/02 03:48:47;;;;;;;0.30;0.30;;;;;;;18.23;100.00;98721.56;5013092;28;20516;-82
2023/08/02 03:51:14;;;;;;;0.30;0.30;;;;;;;18.23;100.00;98725.13;5012924;28;20050;-82
2023/08/02 03:53:41;;;;;;;0.30;0.30;;;;;;;18.23;100.00;98725.13;5012806;28;20049;-81
2023/08/02 03:56:08;;;;;;;0.30;0.30;;;;;;;18.26;100.00;98724.50;5012788;28;20061;-80
2023/08/02 03:58:35;;;;;;;0.30;0.30;;;;;;;18.37;100.00;98723.19;5012421;28;20056;-80
2023/08/02 04:01:02;;;;;;;0.30;0.30;;;;;;;18.55;100.00;98724.22;5013748;28;20046;-81
2023/08/02 04:03:29;;;;;;;0.40;0.40;;;;;;;18.76;100.00;98713.72;5015794;28;20131;-80
2023/08/02 04:05:56;;;;;;;0.30;0.30;;;;;;;18.93;100.00;98723.19;5025722;28;20077;-80
2023/08/02 04:08:26;;;;;;;0.30;0.30;;;;;;;19.08;100.00;98717.41;5016448;28;20056;-80
2023/08/02 04:10:53;;;;;;;0.30;0.30;;;;;;;19.23;99.01;98721.72;5021490;28;20145;-80
2023/08/02 04:13:20;;;;;;;0.30;0.30;;;;;;;19.33;98.11;98720.69;5014843;28;20058;-80
2023/08/02 04:15:48;;;;;;;0.30;0.30;;;;;;;19.42;97.35;98719.63;5019399;28;20504;-78
2023/08/02 04:18:15;;;;;;;0.30;0.30;;;;;;;19.45;96.80;98727.22;5020222;28;20508;-78
2023/08/02 04:20:42;;;;;;;0.30;0.30;;;;;;;19.49;96.32;98714.53;5026818;28;20143;-78
2023/08/02 04:23:12;;;;;;;0.30;0.30;;;;;;;19.65;95.57;98719.66;5028540;28;20420;-79
2023/08/02 04:25:41;;;;;;;0.30;0.30;;;;;;;19.83;94.50;98729.63;5014084;28;20076;-79
2023/08/02 04:28:08;;;;;;;0.30;0.30;;;;;;;19.95;93.91;98720.00;5021766;28;20420;-79
2023/08/02 04:30:35;;;;;;;0.30;0.30;;;;;;;20.04;93.48;98718.94;5020376;28;20067;-77
2023/08/02 04:33:02;;;;;;;0.30;0.30;;;;;;;20.08;93.10;98719.16;5020485;28;20520;-78
2023/08/02 04:35:32;;;;;;;0.30;0.30;;;;;;;20.20;92.75;98716.59;5020197;28;20046;-79
2023/08/02 04:37:59;;;;;;;0.30;0.30;;;;;;;20.33;91.98;98720.38;5021952;28;20472;-78
2023/08/02 04:40:26;;;;;;;0.30;0.30;;;;;;;20.39;90.73;98716.38;5024139;28;20119;-80
2023/08/02 04:42:54;;;;;;;0.30;0.30;;;;;;;20.38;89.99;98722.16;5016585;28;20045;-80
2023/08/02 04:45:21;;;;;;;0.30;0.30;;;;;;;20.44;89.23;98718.97;5019382;28;20073;-79
2023/08/02 04:47:48;;;;;;;0.30;0.30;;;;;;;20.51;88.31;98713.06;5020143;28;20394;-78
2023/08/02 04:50:15;;;;;;;0.30;0.30;;;;;;;20.65;87.48;98710.22;5018628;28;20049;-80
2023/08/02 04:52:45;;;;;;;0.30;0.30;;;;;;;20.87;86.48;98717.53;5021965;28;20045;-79
2023/08/02 04:55:17;;;;;;;0.30;0.30;;;;;;;20.94;85.09;98713.19;5018442;28;20050;-78
2023/08/02 04:57:45;;;;;;;0.30;0.30;;;;;;;20.86;84.93;98705.72;5020854;28;20059;-77
2023/08/02 05:00:13;;;;;;;0.30;0.30;;;;;;;20.97;84.39;98711.75;5015840;28;20046;-81
2023/08/02 05:02:40;;;;;;;0.30;0.30;;;;;;;21.17;83.33;98724.03;5018323;28;20691;-80
2023/08/02 05:05:07;;;;;;;0.30;0.30;;;;;;;21.27;82.51;98726.47;5024789;28;20448;-81
2023/08/02 05:07:37;;;;;;;0.30;0.30;;;;;;;21.12;82.19;98722.25;5016876;28;20520;-79
2023/08/02 05:10:09;;;;;;;0.30;0.30;;;;;;;20.95;81.89;98725.78;5018466;28;20115;-79
2023/08/02 05:12:38;;;;;;;0.30;0.30;;;;;;;21.07;81.35;98727.91;5021902;28;20054;-80
2023/08/02 05:15:06;;;;;;;0.30;0.30;;;;;;;21.09;79.40;98725.66;5013481;28;20042;-81
2023/08/02 05:17:33;;;;;;;0.30;0.30;;;;;;;21.27;78.52;98726.47;5009081;28;20054;-80
2023/08/02 05:20:02;;;;;;;0.38;0.38;;;;;;;21.69;77.28;98717.75;4686524;28;9999874;-80
2023/08/02 05:22:31;;;;;;;0.30;0.30;;;;;;;22.03;75.14;98714.94;5046463;28;20420;-80
2023/08/02 05:24:58;;;;;;;0.30;0.30;;;;;;;22.14;73.38;98707.16;5063521;28;20048;-81
2023/08/02 05:27:25;;;;;;;0.30;0.30;;;;;;;21.97;73.41;98704.44;5046871;28;20095;-80
2023/08/02 05:29:52;;;;;;;0.30;0.30;;;;;;;21.86;74.59;98709.50;5047738;28;20049;-79
2023/08/02 05:32:23;;;;;;;0.30;0.30;;;;;;;21.93;74.16;98709.00;5046183;28;20106;-79
2023/08/02 05:34:50;;;;;;;0.30;0.30;;;;;;;21.86;74.84;98715.00;5047474;28;20057;-80
2023/08/02 05:37:17;;;;;;;0.30;0.30;;;;;;;21.93;74.56;98704.31;5047458;28;20057;-80
2023/08/02 05:39:47;;;;;;;0.30;0.30;;;;;;;22.06;73.99;98700.56;5048295;28;20048;-80
2023/08/02 05:42:15;;;;;;;0.30;0.30;;;;;;;22.12;73.03;98708.63;5046327;28;20060;-81
2023/08/02 05:44:43;;;;;;;0.20;0.20;;;;;;;22.05;72.87;98706.34;5047921;28;20172;-80
2023/08/02 05:47:13;;;;;;;0.30;0.30;;;;;;;22.19;72.27;98708.91;5048069;28;20041;-78
2023/08/02 05:49:43;;;;;;;0.30;0.30;;;;;;;22.32;71.85;98715.38;5046201;28;20111;-80
2023/08/02 05:52:10;;;;;;;0.30;0.30;;;;;;;22.45;71.58;98715.13;5047517;28;20056;-80
2023/08/02 05:54:46;;;;;;;0.30;0.30;;;;;;;22.56;71.12;98710.09;5046876;28;20049;-81
2023/08/02 05:57:16;;;;;;;0.30;0.30;;;;;;;22.66;70.59;98706.13;5047363;28;20052;-81
2023/08/02 05:59:43;;;;;;;0.30;0.30;;;;;;;22.70;69.25;98699.66;5047117;28;20049;-81
2023/08/02 06:02:10;;;;;;;0.30;0.30;;;;;;;22.80;68.50;98705.91;5047909;28;20103;-81
2023/08/02 06:04:41;;;;;;;0.30;0.30;;;;;;;22.70;68.76;98704.34;5046715;28;20526;-80
2023/08/02 06:07:09;;;;;;;0.25;0.25;;;;;;;22.79;68.16;98707.88;5029335;28;20666;-80
2023/08/02 06:09:36;;;;;;;0.30;0.30;;;;;;;22.82;67.76;98700.91;5047503;28;20052;-83
2023/08/02 06:12:12;;;;;;;0.20;0.20;;;;;;;22.92;67.75;98695.81;5047776;28;20515;-79
2023/08/02 06:14:39;;;;;;;0.30;0.30;;;;;;;22.92;67.07;98693.06;4997478;28;20077;-79
2023/08/02 06:17:09;;;;;;;0.20;0.20;;;;;;;22.76;67.50;98694.75;5047115;28;20557;-80
2023/08/02 06:19:36;;;;;;;0.30;0.30;;;;;;;22.89;68.58;98696.47;5035962;28;20054;-80
2023/08/02 06:22:04;;;;;;;0.30;0.30;;;;;;;22.66;69.22;98695.97;5026926;28;20052;-80
2023/08/02 06:24:31;;;;;;;0.20;0.20;;;;;;;22.53;70.61;98696.19;5026734;28;20128;-79
2023/08/02 06:26:58;;;;;;;0.20;0.20;;;;;;;22.29;70.89;98694.84;5009614;28;20467;-80
2023/08/02 06:29:25;;;;;;;0.20;0.20;;;;;;;22.10;72.11;98697.94;5012366;28;20121;-80
2023/08/02 06:31:52;;;;;;;0.30;0.30;;;;;;;22.32;72.43;98699.69;5016444;28;20053;-81
2023/08/02 06:34:20;;;;;;;0.30;0.30;;;;;;;22.68;71.92;98703.88;5008252;28;20527;-80
2023/08/02 06:36:47;;;;;;;0.30;0.30;;;;;;;22.96;70.76;98706.13;5018972;28;20053;-81
2023/08/02 06:39:14;;;;;;;0.28;0.28;;;;;;;22.92;69.82;98712.31;5019039;28;20100;-82
2023/08/02 06:41:43;;;;;;;0.30;0.30;;;;;;;22.91;70.30;98696.97;5013448;28;20148;-84
2023/08/02 06:44:13;;;;;;;0.30;0.30;;;;;;;23.05;69.73;98704.97;5015973;28;20046;-81
2023/08/02 06:46:41;;;;;;;0.30;0.30;;;;;;;23.19;68.84;98704.69;5015370;28;20053;-81
2023/08/02 06:49:08;;;;;;;0.30;0.30;;;;;;;23.24;68.32;98689.94;5012500;28;20056;-82
2023/08/02 06:51:35;;;;;;;0.30;0.30;;;;;;;23.22;68.66;98686.72;5014837;28;20045;-80
2023/08/02 06:54:02;;;;;;;0.30;0.30;;;;;;;23.38;68.23;98684.16;5013984;28;20065;-79
2023/08/02 06:56:32;;;;;;;0.28;0.28;;;;;;;23.51;67.95;98688.59;5016333;28;20054;-81
2023/08/02 06:58:59;;;;;;;0.20;0.20;;;;;;;23.54;67.35;98687.91;5018527;28;20137;-81
2023/08/02 07:01:28;;;;;;;0.28;0.28;;;;;;;23.54;67.81;98687.91;5013850;28;20049;-80
2023/08/02 07:03:55;;;;;;;0.30;0.30;;;;;;;23.65;67.92;98688.28;5014389;28;20140;-80
2023/08/02 07:06:23;;;;;;;0.30;0.30;;;;;;;23.89;67.53;98688.38;5019004;28;20127;-80
2023/08/02 07:08:50;;;;;;;0.20;0.20;;;;;;;24.08;66.90;98679.59;5015742;28;20456;-80
2023/08/02 07:11:20;;;;;;;0.30;0.30;;;;;;;24.10;66.78;98688.31;5019587;28;20049;-81
2023/08/02 07:14:08;;;;;;;0.20;0.20;;;;;;;24.35;66.29;98666.28;5003944;28;20144;-80
2023/08/02 07:16:35;;;;;;;0.30;0.30;;;;;;;24.44;66.04;98687.09;5022311;28;20045;-81
2023/08/02 07:19:02;;;;;;;0.20;0.20;;;;;;;24.51;66.00;98686.56;5036334;28;20052;-80
2023/08/02 07:21:30;;;;;;;0.28;0.28;;;;;;;24.46;65.49;98680.44;5050770;28;20095;-81
2023/08/02 07:23:57;;;;;;;0.20;0.20;;;;;;;24.43;65.62;98677.22;5050043;28;20053;-82
2023/08/02 07:26:25;;;;;;;0.20;0.20;;;;;;;24.64;62.99;98662.53;5036073;28;20099;-81
2023/08/02 07:28:52;;;;;;;0.20;0.20;;;;;;;24.42;63.78;98677.56;5029954;28;20053;-82
2023/08/02 07:31:19;;;;;;;0.20;0.20;;;;;;;24.19;63.67;98679.97;5018389;28;20480;-80
2023/08/02 07:33:48;;;;;;;0.20;0.20;;;;;;;24.32;64.33;98676.06;5015255;28;20116;-80
2023/08/02 07:36:18;;;;;;;0.20;0.20;;;;;;;24.68;63.00;98679.97;5005409;28;20101;-81
2023/08/02 07:38:49;;;;;;;0.30;0.30;;;;;;;24.63;62.30;98678.25;5016625;28;20172;-82
2023/08/02 07:41:16;;;;;;;0.30;0.30;;;;;;;24.65;62.39;98680.69;5015029;28;20049;-81
2023/08/02 07:43:43;;;;;;;0.20;0.20;;;;;;;24.71;62.03;98684.00;5016587;28;20049;-82
2023/08/02 07:46:21;;;;;;;0.30;0.30;;;;;;;24.74;62.35;98691.59;5016744;28;20054;-80
2023/08/02 07:48:55;;;;;;;0.20;0.20;;;;;;;24.95;61.66;98689.50;5017831;28;20698;-80
2023/08/02 07:51:22;;;;;;;0.30;0.30;;;;;;;25.15;61.13;98690.50;5012474;28;20053;-82
2023/08/02 07:53:50;;;;;;;0.30;0.30;;;;;;;25.21;61.08;98689.13;5016084;28;20050;-81
2023/08/02 07:56:20;;;;;;;0.20;0.20;;;;;;;24.87;61.68;98688.47;5015200;28;20538;-82
2023/08/02 07:58:47;;;;;;;0.30;0.30;;;;;;;24.56;62.62;98689.09;5015954;28;20073;-81
2023/08/02 08:01:17;;;;;;;0.30;0.30;;;;;;;24.88;63.07;98684.56;5018972;28;20058;-81
2023/08/02 08:03:44;;;;;;;0.30;0.30;;;;;;;25.34;61.08;98684.38;5019701;28;20243;-80
2023/08/02 08:06:13;;;;;;;0.30;0.30;;;;;;;25.72;61.43;98680.28;5014068;28;20049;-80
2023/08/02 08:08:45;;;;;;;0.30;0.30;;;;;;;26.23;58.84;98674.97;5017403;28;20412;-80
2023/08/02 08:11:14;;;;;;;0.30;0.30;;;;;;;26.68;57.20;98673.69;5016587;28;20056;-79
2023/08/02 08:13:41;;;;;;;0.30;0.30;;;;;;;26.27;57.66;98675.03;5016091;28;20050;-79
2023/08/02 08:16:09;;;;;;;0.30;0.30;;;;;;;26.36;57.80;98662.66;5017253;28;20054;-79
2023/08/02 08:18:36;;;;;;;0.32;0.32;;;;;;;26.56;57.06;98658.00;5016483;28;20050;-79
2023/08/02 08:21:04;;;;;;;0.30;0.30;;;;;;;26.65;55.61;98666.13;5027283;28;20037;-79
2023/08/02 08:23:33;;;;;;;0.30;0.30;;;;;;;26.93;54.61;98656.84;5009307;28;20111;-80
2023/08/02 08:26:01;;;;;;;0.30;0.30;;;;;;;27.16;54.93;98656.94;5015354;28;20089;-79
2023/08/02 08:28:30;;;;;;;0.20;0.20;;;;;;;27.16;54.04;98654.19;5013610;28;20657;-82
2023/08/02 08:31:00;;;;;;;0.40;0.40;;;;;;;26.91;54.71;98659.97;5013337;28;20061;-79
2023/08/02 08:33:28;;;;;;;0.30;0.30;;;;;;;27.03;54.42;98647.97;5020424;28;20054;-81
2023/08/02 08:36:01;;;;;;;0.22;0.22;;;;;;;27.77;52.76;98649.88;5030793;28;20053;-80
2023/08/02 08:38:30;;;;;;;0.20;0.20;;;;;;;27.50;52.76;98649.78;5030789;28;20049;-80
2023/08/02 08:40:57;;;;;;;0.20;0.20;;;;;;;27.49;52.06;98650.91;5032177;28;20064;-80
2023/08/02 08:43:28;;;;;;;0.30;0.30;;;;;;;27.86;51.32;98650.47;5026014;28;20099;-78
2023/08/02 08:45:57;;;;;;;0.40;0.40;;;;;;;28.86;49.18;98649.31;5019117;28;20056;-80
2023/08/02 08:48:28;;;;;;;0.32;0.32;;;;;;;28.91;47.96;98640.66;5007163;28;20145;-80
2023/08/02 08:50:56;;;;;;;0.40;0.40;;;;;;;29.08;47.83;98644.09;5013509;28;20472;-80
2023/08/02 08:53:31;;;;;;;0.40;0.40;;;;;;;30.20;45.36;98636.56;5017578;28;20061;-80
2023/08/02 08:56:04;;;;;;;0.20;0.20;;;;;;;30.10;45.81;98630.91;5031382;28;20053;-81
2023/08/02 08:58:33;;;;;;;;;;;;;;;29.50;47.39;98643.00;5019116;28;20081;-81
2023/08/02 09:01:03;;;;;;;0.10;0.10;;;;;;;28.70;49.24;98640.38;5015878;28;20331;-79
2023/08/02 09:03:34;;;;;;;0.10;0.10;;;;;;;28.15;50.41;98634.31;5014783;28;20045;-80
2023/08/02 09:06:04;;;;;;;0.30;0.30;;;;;;;28.64;49.70;98636.31;5022505;28;20052;-79
2023/08/02 09:08:43;;;;;;;0.20;0.20;;;;;;;29.11;48.45;98637.78;5021357;28;20045;-79
2023/08/02 09:11:11;;;;;;;0.20;0.20;;;;;;;28.66;48.89;98634.78;5008810;28;20049;-82
2023/08/02 09:13:42;;;;;;;0.10;0.10;;;;;;;28.22;49.06;98628.88;5020298;28;20355;-82
2023/08/02 09:16:13;;;;;;;0.40;0.40;;;;;;;28.80;47.70;98622.25;5026997;28;20073;-84
2023/08/02 09:18:46;;;;;;;0.40;0.40;;;;;;;29.89;45.12;98626.75;5017986;28;20401;-82
2023/08/02 09:21:20;;;;;;;0.40;0.40;;;;;;;30.67;44.41;98618.25;5019465;28;20445;-83
2023/08/02 09:23:50;;;;;;;0.30;0.30;;;;;;;31.42;40.40;98620.63;5021725;28;20093;-83
2023/08/02 09:26:19;;;;;;;0.10;0.10;;;;;;;30.31;43.42;98619.19;5018635;28;20058;-80
2023/08/02 09:29:16;;;;;;;0.30;0.30;;;;;;;29.94;45.19;98622.81;5015625;28;20481;-83
2023/08/02 09:31:52;;;;;;;0.40;0.40;;;;;;;30.97;42.89;98616.44;5025162;28;20467;-83
2023/08/02 09:34:20;;;;;;;0.20;0.20;;;;;;;30.68;42.59;98610.69;5025660;28;20113;-84
2023/08/02 09:36:47;;;;;;;0.40;0.40;;;;;;;30.49;43.12;98613.72;5012041;28;20049;-83
2023/08/02 09:39:15;;;;;;;0.20;0.20;;;;;;;30.33;43.43;98605.69;5012606;28;20159;-83
2023/08/02 09:41:42;;;;;;;0.30;0.30;;;;;;;29.95;44.61;98618.84;5026555;28;20053;-82
2023/08/02 09:44:21;;;;;;;0.30;0.30;;;;;;;31.09;40.77;98591.84;5030992;28;20406;-84
2023/08/02 09:46:49;;;;;;;0.40;0.40;;;;;;;31.97;38.65;98604.81;5028023;28;20081;-83
2023/08/02 09:49:20;;;;;;;0.40;0.40;;;;;;;32.23;39.12;98590.44;5026139;28;20152;-86
2023/08/02 09:51:47;;;;;;;0.30;0.30;;;;;;;32.53;38.17;98583.66;5020315;28;20045;-86
2023/08/02 09:54:15;;;;;;;0.30;0.30;;;;;;;33.18;37.43;98587.06;5025359;28;20049;-85
2023/08/02 09:56:42;;;;;;;0.40;0.40;;;;;;;33.45;36.63;98595.72;5031553;28;20051;-87
2023/08/02 09:59:09;;;;;;;0.40;0.40;;;;;;;33.68;36.21;98581.22;5020318;28;20061;-87
2023/08/02 10:01:36;;;;;;;0.30;0.30;;;;;;;33.80;36.22;98585.53;5012904;28;20049;-85
2023/08/02 10:04:08;;;;;;;0.10;0.10;;;;;;;31.62;39.55;98581.25;5035003;28;20050;-85
2023/08/02 10:06:47;;;;;;;0.10;0.10;;;;;;;30.34;41.91;98573.91;5032411;28;20049;-85
2023/08/02 10:09:19;;;;;;;0.20;0.20;;;;;;;29.49;43.33;98585.81;5001149;28;20061;-87
2023/08/02 10:11:59;;;;;;;0.50;0.50;;;;;;;30.74;41.81;98577.69;5022004;28;20155;-85
2023/08/02 10:14:27;;;;;;;0.20;0.20;;;;;;;31.06;40.51;98575.88;5023966;28;20663;-87
2023/08/02 10:16:54;;;;;;;0.20;0.20;;;;;;;30.05;41.84;98575.63;5020093;28;20088;-86
2023/08/02 10:19:22;;;;;;;0.20;0.20;;;;;;;30.38;41.87;98567.13;5018662;28;20057;-86
2023/08/02 10:21:49;;;;;;;0.20;0.20;;;;;;;30.41;41.04;98562.78;5021167;28;20053;-89
2023/08/02 10:24:17;;;;;;;0.10;0.10;;;;;;;29.91;42.32;98545.72;5029859;28;20046;-87
2023/08/02 10:26:45;;;;;;;0.15;0.15;;;;;;;30.38;41.45;98553.22;5007813;28;20405;-88
2023/08/02 10:29:12;;;;;;;0.20;0.20;;;;;;;30.70;40.69;98563.75;4663539;28;9999969;-88
2023/08/02 10:31:50;;;;;;;0.40;0.40;;;;;;;31.69;38.99;98547.78;4993764;28;20179;-87
2023/08/02 10:34:34;;;;;;;0.40;0.40;;;;;;;33.19;36.49;98561.50;5012508;28;20060;-88
2023/08/02 10:37:02;;;;;;;0.20;0.20;;;;;;;33.38;36.09;98553.81;5029516;28;20045;-87
2023/08/02 10:39:45;;;;;;;0.30;0.30;;;;;;;34.07;35.11;98558.53;5028047;28;20072;-87
2023/08/02 10:42:19;;;;;;;0.40;0.40;;;;;;;34.40;34.23;98549.84;5019838;28;20067;-87
2023/08/02 10:44:55;;;;;;;0.10;0.10;;;;;;;33.92;34.12;98550.66;5027018;28;20061;-87
2023/08/02 10:47:33;;;;;;;0.10;0.10;;;;;;;31.80;37.26;98543.00;5026495;28;20111;-86
2023/08/02 10:50:02;;;;;;;0.10;0.10;;;;;;;30.81;38.73;98544.31;5026691;28;20076;-87
2023/08/02 10:52:33;;;;;;;0.10;0.10;;;;;;;30.35;40.15;98542.88;5005206;28;20539;-87
2023/08/02 10:55:03;;;;;;;0.10;0.10;;;;;;;29.48;42.42;98528.63;5021468;28;20053;-88
2023/08/02 10:57:31;;;;;;;0.20;0.20;;;;;;;29.59;41.99;98529.50;5024354;28;20056;-87
2023/08/02 10:59:58;;;;;;;0.40;0.40;;;;;;;30.58;40.81;98533.47;5010544;28;20085;-89
2023/08/02 11:02:25;;;;;;;0.47;0.47;;;;;;;32.47;37.20;98535.00;5017813;28;20049;-90
2023/08/02 11:04:53;;;;;;;0.40;0.40;;;;;;;33.92;34.56;98540.25;5015344;28;20049;-88
2023/08/02 11:07:21;;;;;;;0.25;0.25;;;;;;;34.53;33.53;98520.88;5014530;28;20041;-88
2023/08/02 11:09:54;;;;;;;0.10;0.10;;;;;;;32.54;36.76;98521.84;5009759;28;20054;-90
2023/08/02 11:15:30;;;;;;;0.10;0.10;;;;;;;29.61;41.62;98535.50;5070604;23;20057;-87
2023/08/02 11:17:58;;;;;;;0.10;0.10;;;;;;;28.75;42.33;98540.09;4837631;29;20053;-89
2023/08/02 11:20:28;;;;;;;0.10;0.10;;;;;;;27.80;46.55;98536.28;4854405;29;20049;-89
2023/08/02 11:22:58;;;;;;;0.10;0.10;;;;;;;27.03;49.70;98551.06;4860987;29;20152;-88
2023/08/02 11:25:39;;;;;;;0.20;0.20;;;;;;;26.72;50.88;98547.28;4840567;29;20430;-89
2023/08/02 11:28:06;;;;;;;0.20;0.20;;;;;;;26.56;51.47;98552.88;4840468;29;20141;-89
2023/08/02 11:30:34;;;;;;;0.10;0.10;;;;;;;26.39;52.78;98550.47;4850720;29;20474;-87
2023/08/02 11:33:02;;;;;;;0.40;0.40;;;;;;;26.92;50.98;98550.06;4850556;29;20475;-88
2023/08/02 11:35:29;;;;;;;0.20;0.20;;;;;;;27.25;50.83;98557.06;4844264;29;20050;-87
2023/08/02 11:37:57;;;;;;;0.20;0.20;;;;;;;27.09;51.36;98546.81;4854758;29;20058;-84
2023/08/02 11:40:36;;;;;;;0.20;0.20;;;;;;;27.00;51.11;98540.72;4845143;29;20124;-83
2023/08/02 11:43:03;;;;;;;0.20;0.20;;;;;;;27.10;50.91;98561.47;4826315;29;20057;-82